sensor_id;sensor_type;location;lat;lon;timestamp;temperature;humidity
18426;DHT22;9340;48.756;9.226;2022-07-29T00:01:21;18.80;99.90
18426;DHT22;9340;48.756;9.226;2022-07-29T00:03:48;18.80;99.90
18426;DHT22;9340;48.756;9.226;2022-07-29T00:06:15;18.90;99.90
18426;DHT22;9340;48.756;9.226;2022-07-29T00:08:41;19.10;99.90
18426;DHT22;9340;48.756;9.226;2022-07-29T00:11:08;19.20;99.90
18426;DHT22;9340;48.756;9.226;2022-07-29T00:13:36;19.10;99.90
18426;DHT22;9340;48.756;9.226;2022-07-29T00:16:03;19.10;99.90
18426;DHT22;9340;48.756;9.226;2022-07-29T00:18:30;19.10;99.90
18426;DHT22;9340;48.756;9.226;2022-07-29T00:20:57;19.20;99.90
18426;DHT22;9340;48.756;9.226;2022-07-29T00:23:23;19.10;99.90
18426;DHT22;9340;48.756;9.226;2022-07-29T00:25:50;19.10;99.90
18426;DHT22;9340;48.756;9.226;2022-07-29T00:28:17;19.10;99.90
18426;DHT22;9340;48.756;9.226;2022-07-29T00:30:45;19.00;99.90
18426;DHT22;9340;48.756;9.226;2022-07-29T00:33:12;18.90;99.90
18426;DHT22;9340;48.756;9.226;2022-07-29T00:35:38;19.00;99.90
18426;DHT22;9340;48.756;9.226;2022-07-29T00:38:10;19.00;99.90
18426;DHT22;9340;48.756;9.226;2022-07-29T00:40:37;18.80;99.90
18426;DHT22;9340;48.756;9.226;2022-07-29T00:43:04;18.80;99.90
18426;DHT22;9340;48.756;9.226;2022-07-29T00:45:30;18.80;99.90
18426;DHT22;9340;48.756;9.226;2022-07-29T00:47:58;18.70;99.90
18426;DHT22;9340;48.756;9.226;2022-07-29T00:50:26;18.70;99.90
18426;DHT22;9340;48.756;9.226;2022-07-29T00:52:53;18.70;99.90
18426;DHT22;9340;48.756;9.226;2022-07-29T00:55:20;18.50;99.90
18426;DHT22;9340;48.756;9.226;2022-07-29T00:57:46;18.50;99.90
18426;DHT22;9340;48.756;9.226;2022-07-29T01:00:16;18.50;99.90
18426;DHT22;9340;48.756;9.226;2022-07-29T01:02:43;18.50;99.90
18426;DHT22;9340;48.756;9.226;2022-07-29T01:05:12;18.50;99.90
18426;DHT22;9340;48.756;9.226;2022-07-29T01:07:39;18.40;99.90
18426;DHT22;9340;48.756;9.226;2022-07-29T01:10:07;18.40;99.90
18426;DHT22;9340;48.756;9.226;2022-07-29T01:12:37;18.50;99.90
18426;DHT22;9340;48.756;9.226;2022-07-29T01:15:05;18.50;99.90
18426;DHT22;9340;48.756;9.226;2022-07-29T01:17:36;18.40;99.90
18426;DHT22;9340;48.756;9.226;2022-07-29T01:20:10;18.50;99.90
18426;DHT22;9340;48.756;9.226;2022-07-29T01:22:53;18.40;99.90
18426;DHT22;9340;48.756;9.226;2022-07-29T01:25:38;18.50;99.90
18426;DHT22;9340;48.756;9.226;2022-07-29T01:28:29;18.50;99.90
18426;DHT22;9340;48.756;9.226;2022-07-29T01:30:58;18.40;99.90
18426;DHT22;9340;48.756;9.226;2022-07-29T01:33:25;18.30;99.90
18426;DHT22;9340;48.756;9.226;2022-07-29T01:36:14;18.30;99.90
18426;DHT22;9340;48.756;9.226;2022-07-29T01:38:45;18.20;99.90
18426;DHT22;9340;48.756;9.226;2022-07-29T01:41:16;18.10;99.90
18426;DHT22;9340;48.756;9.226;2022-07-29T01:43:50;17.90;99.90
18426;DHT22;9340;48.756;9.226;2022-07-29T01:46:21;17.90;99.90
18426;DHT22;9340;48.756;9.226;2022-07-29T01:48:53;18.00;99.90
18426;DHT22;9340;48.756;9.226;2022-07-29T01:51:25;18.00;99.90
18426;DHT22;9340;48.756;9.226;2022-07-29T01:53:58;17.90;99.90
18426;DHT22;9340;48.756;9.226;2022-07-29T01:56:29;17.90;99.90
18426;DHT22;9340;48.756;9.226;2022-07-29T01:59:01;17.90;99.90
18426;DHT22;9340;48.756;9.226;2022-07-29T02:01:30;17.80;99.90
18426;DHT22;9340;48.756;9.226;2022-07-29T02:03:59;17.70;99.90
18426;DHT22;9340;48.756;9.226;2022-07-29T02:06:29;17.70;99.90
18426;DHT22;9340;48.756;9.226;2022-07-29T02:08:58;17.80;99.90
18426;DHT22;9340;48.756;9.226;2022-07-29T02:11:25;17.60;99.90
18426;DHT22;9340;48.756;9.226;2022-07-29T02:13:52;17.50;99.90
18426;DHT22;9340;48.756;9.226;2022-07-29T02:16:23;17.40;99.90
18426;DHT22;9340;48.756;9.226;2022-07-29T02:18:52;17.50;99.90
18426;DHT22;9340;48.756;9.226;2022-07-29T02:21:24;17.60;99.90
18426;DHT22;9340;48.756;9.226;2022-07-29T02:23:52;17.60;99.90
18426;DHT22;9340;48.756;9.226;2022-07-29T02:26:20;17.40;99.90
18426;DHT22;9340;48.756;9.226;2022-07-29T02:28:49;17.30;99.90
18426;DHT22;9340;48.756;9.226;2022-07-29T02:31:16;17.30;99.90
18426;DHT22;9340;48.756;9.226;2022-07-29T02:33:47;17.40;99.90
18426;DHT22;9340;48.756;9.226;2022-07-29T02:36:15;17.30;99.90
18426;DHT22;9340;48.756;9.226;2022-07-29T02:38:43;17.30;99.90
18426;DHT22;9340;48.756;9.226;2022-07-29T02:41:20;17.30;99.90
18426;DHT22;9340;48.756;9.226;2022-07-29T02:43:47;17.30;99.90
18426;DHT22;9340;48.756;9.226;2022-07-29T02:46:21;17.20;99.90
18426;DHT22;9340;48.756;9.226;2022-07-29T02:48:57;17.30;99.90
18426;DHT22;9340;48.756;9.226;2022-07-29T02:51:28;17.20;99.90
18426;DHT22;9340;48.756;9.226;2022-07-29T02:54:02;17.20;99.90
18426;DHT22;9340;48.756;9.226;2022-07-29T02:56:33;17.10;99.90
18426;DHT22;9340;48.756;9.226;2022-07-29T02:59:05;17.10;99.90
18426;DHT22;9340;48.756;9.226;2022-07-29T03:01:35;17.10;99.90
18426;DHT22;9340;48.756;9.226;2022-07-29T03:04:06;17.10;99.90
18426;DHT22;9340;48.756;9.226;2022-07-29T03:06:34;17.10;99.90
18426;DHT22;9340;48.756;9.226;2022-07-29T03:09:03;17.10;99.90
18426;DHT22;9340;48.756;9.226;2022-07-29T03:11:30;17.10;99.90
18426;DHT22;9340;48.756;9.226;2022-07-29T03:13:57;17.10;99.90
18426;DHT22;9340;48.756;9.226;2022-07-29T03:16:25;17.00;99.90
18426;DHT22;9340;48.756;9.226;2022-07-29T03:18:52;16.90;99.90
18426;DHT22;9340;48.756;9.226;2022-07-29T03:21:20;17.00;99.90
18426;DHT22;9340;48.756;9.226;2022-07-29T03:23:47;16.90;99.90
18426;DHT22;9340;48.756;9.226;2022-07-29T03:26:14;16.90;99.90
18426;DHT22;9340;48.756;9.226;2022-07-29T03:28:41;16.90;99.90
18426;DHT22;9340;48.756;9.226;2022-07-29T03:31:07;17.00;99.90
18426;DHT22;9340;48.756;9.226;2022-07-29T03:33:34;17.00;99.90
18426;DHT22;9340;48.756;9.226;2022-07-29T03:36:01;16.90;99.90
18426;DHT22;9340;48.756;9.226;2022-07-29T03:38:30;16.90;99.90
18426;DHT22;9340;48.756;9.226;2022-07-29T03:41:02;16.90;99.90
18426;DHT22;9340;48.756;9.226;2022-07-29T03:43:31;16.90;99.90
18426;DHT22;9340;48.756;9.226;2022-07-29T03:46:00;16.90;99.90
18426;DHT22;9340;48.756;9.226;2022-07-29T03:48:30;17.00;99.90
18426;DHT22;9340;48.756;9.226;2022-07-29T03:50:59;16.90;99.90
18426;DHT22;9340;48.756;9.226;2022-07-29T03:53:25;16.80;99.90
18426;DHT22;9340;48.756;9.226;2022-07-29T03:55:57;16.80;99.90
18426;DHT22;9340;48.756;9.226;2022-07-29T03:58:26;16.80;99.90
18426;DHT22;9340;48.756;9.226;2022-07-29T04:00:54;16.90;99.90
18426;DHT22;9340;48.756;9.226;2022-07-29T04:03:21;16.90;99.90
18426;DHT22;9340;48.756;9.226;2022-07-29T04:05:58;16.80;99.90
18426;DHT22;9340;48.756;9.226;2022-07-29T04:08:25;16.80;99.90
18426;DHT22;9340;48.756;9.226;2022-07-29T04:10:51;17.00;99.90
18426;DHT22;9340;48.756;9.226;2022-07-29T04:13:20;17.00;99.90
18426;DHT22;9340;48.756;9.226;2022-07-29T04:15:47;16.90;99.90
18426;DHT22;9340;48.756;9.226;2022-07-29T04:18:13;16.90;99.90
18426;DHT22;9340;48.756;9.226;2022-07-29T04:20:40;17.10;99.90
18426;DHT22;9340;48.756;9.226;2022-07-29T04:23:07;17.00;99.90
18426;DHT22;9340;48.756;9.226;2022-07-29T04:25:36;17.10;99.90
18426;DHT22;9340;48.756;9.226;2022-07-29T04:28:03;17.10;99.90
18426;DHT22;9340;48.756;9.226;2022-07-29T04:30:32;17.00;99.90
18426;DHT22;9340;48.756;9.226;2022-07-29T04:32:59;17.10;99.90
18426;DHT22;9340;48.756;9.226;2022-07-29T04:35:27;17.00;99.90
18426;DHT22;9340;48.756;9.226;2022-07-29T04:37:53;17.00;99.90
18426;DHT22;9340;48.756;9.226;2022-07-29T04:40:20;16.90;99.90
18426;DHT22;9340;48.756;9.226;2022-07-29T04:42:47;16.90;99.90
18426;DHT22;9340;48.756;9.226;2022-07-29T04:45:14;16.80;99.90
18426;DHT22;9340;48.756;9.226;2022-07-29T04:47:42;16.80;99.90
18426;DHT22;9340;48.756;9.226;2022-07-29T04:50:09;17.00;99.90
18426;DHT22;9340;48.756;9.226;2022-07-29T04:52:36;17.10;99.90
18426;DHT22;9340;48.756;9.226;2022-07-29T04:55:03;17.30;99.90
18426;DHT22;9340;48.756;9.226;2022-07-29T04:57:30;17.50;99.90
18426;DHT22;9340;48.756;9.226;2022-07-29T04:59:57;17.50;99.90
18426;DHT22;9340;48.756;9.226;2022-07-29T05:02:24;17.60;99.90
18426;DHT22;9340;48.756;9.226;2022-07-29T05:04:52;17.60;99.90
18426;DHT22;9340;48.756;9.226;2022-07-29T05:07:19;17.50;99.90
18426;DHT22;9340;48.756;9.226;2022-07-29T05:09:45;17.50;99.90
18426;DHT22;9340;48.756;9.226;2022-07-29T05:12:12;17.50;99.90
18426;DHT22;9340;48.756;9.226;2022-07-29T05:14:39;17.70;99.90
18426;DHT22;9340;48.756;9.226;2022-07-29T05:17:06;17.90;99.90
18426;DHT22;9340;48.756;9.226;2022-07-29T05:19:32;18.20;99.90
18426;DHT22;9340;48.756;9.226;2022-07-29T05:22:00;18.30;99.90
18426;DHT22;9340;48.756;9.226;2022-07-29T05:24:27;18.50;99.90
18426;DHT22;9340;48.756;9.226;2022-07-29T05:26:54;18.70;99.90
18426;DHT22;9340;48.756;9.226;2022-07-29T05:29:21;18.90;99.90
18426;DHT22;9340;48.756;9.226;2022-07-29T05:31:47;19.10;99.90
18426;DHT22;9340;48.756;9.226;2022-07-29T05:34:14;19.20;99.90
18426;DHT22;9340;48.756;9.226;2022-07-29T05:36:41;19.30;99.90
18426;DHT22;9340;48.756;9.226;2022-07-29T05:39:09;19.50;99.90
18426;DHT22;9340;48.756;9.226;2022-07-29T05:41:35;19.80;99.90
18426;DHT22;9340;48.756;9.226;2022-07-29T05:44:02;19.90;99.90
18426;DHT22;9340;48.756;9.226;2022-07-29T05:46:29;20.20;99.90
18426;DHT22;9340;48.756;9.226;2022-07-29T05:48:55;20.50;99.90
18426;DHT22;9340;48.756;9.226;2022-07-29T05:51:22;21.10;99.90
18426;DHT22;9340;48.756;9.226;2022-07-29T05:53:49;22.30;99.90
18426;DHT22;9340;48.756;9.226;2022-07-29T05:56:17;23.60;99.90
18426;DHT22;9340;48.756;9.226;2022-07-29T05:58:43;23.80;99.90
18426;DHT22;9340;48.756;9.226;2022-07-29T06:01:10;23.60;99.90
18426;DHT22;9340;48.756;9.226;2022-07-29T06:03:38;23.30;99.90
18426;DHT22;9340;48.756;9.226;2022-07-29T06:06:06;23.70;99.90
18426;DHT22;9340;48.756;9.226;2022-07-29T06:08:34;24.30;99.90
18426;DHT22;9340;48.756;9.226;2022-07-29T06:11:03;24.50;99.90
18426;DHT22;9340;48.756;9.226;2022-07-29T06:13:33;24.70;99.90
18426;DHT22;9340;48.756;9.226;2022-07-29T06:15:59;25.00;99.90
18426;DHT22;9340;48.756;9.226;2022-07-29T06:18:29;25.20;99.90
18426;DHT22;9340;48.756;9.226;2022-07-29T06:20:57;25.10;99.90
18426;DHT22;9340;48.756;9.226;2022-07-29T06:23:24;24.90;99.90
18426;DHT22;9340;48.756;9.226;2022-07-29T06:25:52;25.00;99.90
18426;DHT22;9340;48.756;9.226;2022-07-29T06:28:19;25.30;99.90
18426;DHT22;9340;48.756;9.226;2022-07-29T06:30:49;25.60;99.90
18426;DHT22;9340;48.756;9.226;2022-07-29T06:33:17;25.70;99.90
18426;DHT22;9340;48.756;9.226;2022-07-29T06:35:45;25.70;99.90
18426;DHT22;9340;48.756;9.226;2022-07-29T06:38:15;25.50;99.90
18426;DHT22;9340;48.756;9.226;2022-07-29T06:40:42;25.40;99.90
18426;DHT22;9340;48.756;9.226;2022-07-29T06:43:29;25.20;99.90
18426;DHT22;9340;48.756;9.226;2022-07-29T06:46:03;25.00;99.90
18426;DHT22;9340;48.756;9.226;2022-07-29T06:48:32;24.90;99.90
18426;DHT22;9340;48.756;9.226;2022-07-29T06:50:59;24.80;99.90
18426;DHT22;9340;48.756;9.226;2022-07-29T06:53:27;24.80;99.90
18426;DHT22;9340;48.756;9.226;2022-07-29T06:55:54;24.70;99.90
18426;DHT22;9340;48.756;9.226;2022-07-29T06:58:22;24.60;99.90
18426;DHT22;9340;48.756;9.226;2022-07-29T07:00:49;24.40;99.90
18426;DHT22;9340;48.756;9.226;2022-07-29T07:03:18;24.20;99.90
18426;DHT22;9340;48.756;9.226;2022-07-29T07:05:45;24.00;99.90
18426;DHT22;9340;48.756;9.226;2022-07-29T07:08:13;24.00;99.90
18426;DHT22;9340;48.756;9.226;2022-07-29T07:10:41;23.90;99.90
18426;DHT22;9340;48.756;9.226;2022-07-29T07:13:09;23.90;99.90
18426;DHT22;9340;48.756;9.226;2022-07-29T07:15:36;24.00;99.90
18426;DHT22;9340;48.756;9.226;2022-07-29T07:18:03;24.00;99.90
18426;DHT22;9340;48.756;9.226;2022-07-29T07:20:31;24.10;99.90
18426;DHT22;9340;48.756;9.226;2022-07-29T07:22:57;24.20;99.90
18426;DHT22;9340;48.756;9.226;2022-07-29T07:25:24;24.40;99.90
18426;DHT22;9340;48.756;9.226;2022-07-29T07:27:51;24.40;99.90
18426;DHT22;9340;48.756;9.226;2022-07-29T07:30:18;24.60;99.90
18426;DHT22;9340;48.756;9.226;2022-07-29T07:32:45;24.60;99.90
18426;DHT22;9340;48.756;9.226;2022-07-29T07:35:11;24.60;99.90
18426;DHT22;9340;48.756;9.226;2022-07-29T07:37:40;24.60;99.90
18426;DHT22;9340;48.756;9.226;2022-07-29T07:40:09;24.60;99.90
18426;DHT22;9340;48.756;9.226;2022-07-29T07:42:36;24.70;99.90
18426;DHT22;9340;48.756;9.226;2022-07-29T07:45:04;24.70;99.90
18426;DHT22;9340;48.756;9.226;2022-07-29T07:47:31;24.70;99.90
18426;DHT22;9340;48.756;9.226;2022-07-29T07:49:58;24.70;99.90
18426;DHT22;9340;48.756;9.226;2022-07-29T07:52:25;24.80;99.90
18426;DHT22;9340;48.756;9.226;2022-07-29T07:54:53;24.70;99.90
18426;DHT22;9340;48.756;9.226;2022-07-29T07:57:20;24.70;99.90
18426;DHT22;9340;48.756;9.226;2022-07-29T07:59:47;24.80;99.90
18426;DHT22;9340;48.756;9.226;2022-07-29T08:02:13;24.80;99.90
18426;DHT22;9340;48.756;9.226;2022-07-29T08:04:40;24.80;99.90
18426;DHT22;9340;48.756;9.226;2022-07-29T08:07:07;24.80;99.90
18426;DHT22;9340;48.756;9.226;2022-07-29T08:09:34;24.90;99.90
18426;DHT22;9340;48.756;9.226;2022-07-29T08:12:03;25.10;99.90
18426;DHT22;9340;48.756;9.226;2022-07-29T08:14:31;25.20;99.90
18426;DHT22;9340;48.756;9.226;2022-07-29T08:16:58;25.10;99.90
18426;DHT22;9340;48.756;9.226;2022-07-29T08:19:24;25.00;99.90
18426;DHT22;9340;48.756;9.226;2022-07-29T08:21:51;25.00;99.90
18426;DHT22;9340;48.756;9.226;2022-07-29T08:24:18;24.90;99.90
18426;DHT22;9340;48.756;9.226;2022-07-29T08:27:04;24.90;99.90
18426;DHT22;9340;48.756;9.226;2022-07-29T08:29:31;24.80;99.90
18426;DHT22;9340;48.756;9.226;2022-07-29T08:31:58;24.80;99.90
18426;DHT22;9340;48.756;9.226;2022-07-29T08:34:24;24.60;99.90
18426;DHT22;9340;48.756;9.226;2022-07-29T08:36:51;24.60;99.90
18426;DHT22;9340;48.756;9.226;2022-07-29T08:39:18;24.80;99.90
18426;DHT22;9340;48.756;9.226;2022-07-29T08:41:44;24.80;99.90
18426;DHT22;9340;48.756;9.226;2022-07-29T08:44:13;24.90;99.90
18426;DHT22;9340;48.756;9.226;2022-07-29T08:46:41;24.80;99.90
18426;DHT22;9340;48.756;9.226;2022-07-29T08:49:08;24.80;99.90
18426;DHT22;9340;48.756;9.226;2022-07-29T08:51:36;24.70;99.90
18426;DHT22;9340;48.756;9.226;2022-07-29T08:54:03;24.60;99.90
18426;DHT22;9340;48.756;9.226;2022-07-29T08:56:30;24.70;99.90
18426;DHT22;9340;48.756;9.226;2022-07-29T08:58:57;24.90;99.90
18426;DHT22;9340;48.756;9.226;2022-07-29T09:01:27;24.90;99.90
18426;DHT22;9340;48.756;9.226;2022-07-29T09:03:56;24.90;99.90
18426;DHT22;9340;48.756;9.226;2022-07-29T09:06:24;25.00;99.90
18426;DHT22;9340;48.756;9.226;2022-07-29T09:08:53;25.10;99.90
18426;DHT22;9340;48.756;9.226;2022-07-29T09:11:20;25.10;99.90
18426;DHT22;9340;48.756;9.226;2022-07-29T09:13:47;25.10;99.90
18426;DHT22;9340;48.756;9.226;2022-07-29T09:16:14;25.20;99.90
18426;DHT22;9340;48.756;9.226;2022-07-29T09:18:43;25.40;99.90
18426;DHT22;9340;48.756;9.226;2022-07-29T09:21:12;25.40;99.90
18426;DHT22;9340;48.756;9.226;2022-07-29T09:24:01;25.30;99.90
18426;DHT22;9340;48.756;9.226;2022-07-29T09:26:29;25.10;99.90
18426;DHT22;9340;48.756;9.226;2022-07-29T09:28:56;25.20;99.90
18426;DHT22;9340;48.756;9.226;2022-07-29T09:31:32;25.30;99.90
18426;DHT22;9340;48.756;9.226;2022-07-29T09:34:01;25.50;99.90
18426;DHT22;9340;48.756;9.226;2022-07-29T09:36:28;25.90;99.90
18426;DHT22;9340;48.756;9.226;2022-07-29T09:38:58;26.00;99.90
18426;DHT22;9340;48.756;9.226;2022-07-29T09:41:26;25.80;99.90
18426;DHT22;9340;48.756;9.226;2022-07-29T09:43:54;25.70;99.90
18426;DHT22;9340;48.756;9.226;2022-07-29T09:46:21;25.90;99.90
18426;DHT22;9340;48.756;9.226;2022-07-29T09:49:07;26.00;99.90
18426;DHT22;9340;48.756;9.226;2022-07-29T09:51:34;26.30;99.90
18426;DHT22;9340;48.756;9.226;2022-07-29T09:54:01;26.20;99.90
18426;DHT22;9340;48.756;9.226;2022-07-29T09:56:39;26.40;99.90
18426;DHT22;9340;48.756;9.226;2022-07-29T09:59:07;26.70;99.90
18426;DHT22;9340;48.756;9.226;2022-07-29T10:01:34;26.90;99.90
18426;DHT22;9340;48.756;9.226;2022-07-29T10:04:01;26.70;99.90
18426;DHT22;9340;48.756;9.226;2022-07-29T10:06:29;27.00;99.90
18426;DHT22;9340;48.756;9.226;2022-07-29T10:09:07;27.30;99.90
18426;DHT22;9340;48.756;9.226;2022-07-29T10:11:34;27.60;99.90
18426;DHT22;9340;48.756;9.226;2022-07-29T10:14:02;28.00;99.90
18426;DHT22;9340;48.756;9.226;2022-07-29T10:16:30;28.00;99.90
18426;DHT22;9340;48.756;9.226;2022-07-29T10:18:59;27.90;99.90
18426;DHT22;9340;48.756;9.226;2022-07-29T10:21:26;28.10;99.90
18426;DHT22;9340;48.756;9.226;2022-07-29T10:23:55;28.10;99.90
18426;DHT22;9340;48.756;9.226;2022-07-29T10:26:23;28.10;99.90
18426;DHT22;9340;48.756;9.226;2022-07-29T10:28:50;28.30;99.90
18426;DHT22;9340;48.756;9.226;2022-07-29T10:31:22;28.50;99.90
18426;DHT22;9340;48.756;9.226;2022-07-29T10:33:59;28.70;99.90
18426;DHT22;9340;48.756;9.226;2022-07-29T10:36:41;28.50;99.90
18426;DHT22;9340;48.756;9.226;2022-07-29T10:39:20;28.20;99.90
18426;DHT22;9340;48.756;9.226;2022-07-29T10:42:06;27.60;99.90
18426;DHT22;9340;48.756;9.226;2022-07-29T10:44:35;27.10;99.90
18426;DHT22;9340;48.756;9.226;2022-07-29T10:47:06;26.60;99.90
18426;DHT22;9340;48.756;9.226;2022-07-29T10:49:32;26.40;99.90
18426;DHT22;9340;48.756;9.226;2022-07-29T10:52:02;26.30;99.90
18426;DHT22;9340;48.756;9.226;2022-07-29T10:54:48;26.20;99.90
18426;DHT22;9340;48.756;9.226;2022-07-29T10:57:24;25.90;99.90
18426;DHT22;9340;48.756;9.226;2022-07-29T11:00:30;24.30;99.90
18426;DHT22;9340;48.756;9.226;2022-07-29T11:02:57;23.00;99.90
18426;DHT22;9340;48.756;9.226;2022-07-29T11:05:25;22.40;99.90
18426;DHT22;9340;48.756;9.226;2022-07-29T11:08:20;22.20;99.90
18426;DHT22;9340;48.756;9.226;2022-07-29T11:10:51;21.70;99.90
18426;DHT22;9340;48.756;9.226;2022-07-29T11:13:47;20.30;99.90
18426;DHT22;9340;48.756;9.226;2022-07-29T11:16:16;18.70;99.90
18426;DHT22;9340;48.756;9.226;2022-07-29T11:21:45;18.50;99.90
18426;DHT22;9340;48.756;9.226;2022-07-29T11:24:12;18.50;99.90
18426;DHT22;9340;48.756;9.226;2022-07-29T11:26:41;18.70;99.90
18426;DHT22;9340;48.756;9.226;2022-07-29T11:29:17;18.40;99.90
18426;DHT22;9340;48.756;9.226;2022-07-29T11:31:46;18.00;99.90
18426;DHT22;9340;48.756;9.226;2022-07-29T11:34:19;17.30;99.90
18426;DHT22;9340;48.756;9.226;2022-07-29T11:37:23;17.20;99.90
18426;DHT22;9340;48.756;9.226;2022-07-29T11:40:15;17.80;99.90
18426;DHT22;9340;48.756;9.226;2022-07-29T11:42:50;18.20;99.90
18426;DHT22;9340;48.756;9.226;2022-07-29T11:45:23;18.50;99.90
18426;DHT22;9340;48.756;9.226;2022-07-29T11:47:55;18.50;99.90
18426;DHT22;9340;48.756;9.226;2022-07-29T11:50:32;18.30;99.90
18426;DHT22;9340;48.756;9.226;2022-07-29T11:53:00;17.60;99.90
18426;DHT22;9340;48.756;9.226;2022-07-29T11:55:27;17.50;99.90
18426;DHT22;9340;48.756;9.226;2022-07-29T11:57:57;17.70;99.90
18426;DHT22;9340;48.756;9.226;2022-07-29T12:00:30;18.30;99.90
18426;DHT22;9340;48.756;9.226;2022-07-29T12:02:58;18.80;99.90
18426;DHT22;9340;48.756;9.226;2022-07-29T12:05:33;19.10;99.90
18426;DHT22;9340;48.756;9.226;2022-07-29T12:08:08;19.30;99.90
18426;DHT22;9340;48.756;9.226;2022-07-29T12:10:36;19.50;99.90
18426;DHT22;9340;48.756;9.226;2022-07-29T12:13:04;19.60;99.90
18426;DHT22;9340;48.756;9.226;2022-07-29T12:15:31;19.70;99.90
18426;DHT22;9340;48.756;9.226;2022-07-29T12:17:57;19.70;99.90
18426;DHT22;9340;48.756;9.226;2022-07-29T12:20:26;19.70;99.90
18426;DHT22;9340;48.756;9.226;2022-07-29T12:22:53;19.90;99.90
18426;DHT22;9340;48.756;9.226;2022-07-29T12:25:22;20.00;99.90
18426;DHT22;9340;48.756;9.226;2022-07-29T12:27:58;20.30;99.90
18426;DHT22;9340;48.756;9.226;2022-07-29T12:30:37;20.40;99.90
18426;DHT22;9340;48.756;9.226;2022-07-29T12:33:11;20.60;99.90
18426;DHT22;9340;48.756;9.226;2022-07-29T12:35:38;20.80;99.90
18426;DHT22;9340;48.756;9.226;2022-07-29T12:38:05;21.10;99.90
18426;DHT22;9340;48.756;9.226;2022-07-29T12:40:32;21.10;99.90
18426;DHT22;9340;48.756;9.226;2022-07-29T12:43:06;21.00;99.90
18426;DHT22;9340;48.756;9.226;2022-07-29T12:45:36;20.90;99.90
18426;DHT22;9340;48.756;9.226;2022-07-29T12:48:03;20.80;99.90
18426;DHT22;9340;48.756;9.226;2022-07-29T12:50:30;20.90;99.90
18426;DHT22;9340;48.756;9.226;2022-07-29T12:53:08;20.80;99.90
18426;DHT22;9340;48.756;9.226;2022-07-29T12:55:40;20.40;99.90
18426;DHT22;9340;48.756;9.226;2022-07-29T12:58:06;20.40;99.90
18426;DHT22;9340;48.756;9.226;2022-07-29T13:00:33;20.40;99.90
18426;DHT22;9340;48.756;9.226;2022-07-29T13:03:01;20.40;99.90
18426;DHT22;9340;48.756;9.226;2022-07-29T13:05:49;20.40;99.90
18426;DHT22;9340;48.756;9.226;2022-07-29T13:08:17;20.30;99.90
18426;DHT22;9340;48.756;9.226;2022-07-29T13:10:45;20.30;99.90
18426;DHT22;9340;48.756;9.226;2022-07-29T13:13:14;20.30;99.90
18426;DHT22;9340;48.756;9.226;2022-07-29T13:15:42;20.30;99.90
18426;DHT22;9340;48.756;9.226;2022-07-29T13:18:28;20.30;99.90
18426;DHT22;9340;48.756;9.226;2022-07-29T13:20:55;20.20;99.90
18426;DHT22;9340;48.756;9.226;2022-07-29T13:23:22;20.20;99.90
18426;DHT22;9340;48.756;9.226;2022-07-29T13:25:49;20.10;99.90
18426;DHT22;9340;48.756;9.226;2022-07-29T13:28:16;20.10;99.90
18426;DHT22;9340;48.756;9.226;2022-07-29T13:30:43;20.10;99.90
18426;DHT22;9340;48.756;9.226;2022-07-29T13:33:09;20.00;99.90
18426;DHT22;9340;48.756;9.226;2022-07-29T13:35:38;20.00;99.90
18426;DHT22;9340;48.756;9.226;2022-07-29T13:38:05;19.80;99.90
18426;DHT22;9340;48.756;9.226;2022-07-29T13:40:31;19.70;99.90
18426;DHT22;9340;48.756;9.226;2022-07-29T13:43:00;19.50;99.90
18426;DHT22;9340;48.756;9.226;2022-07-29T13:45:27;19.40;99.90
18426;DHT22;9340;48.756;9.226;2022-07-29T13:47:54;19.60;99.90
18426;DHT22;9340;48.756;9.226;2022-07-29T13:50:20;19.90;99.90
18426;DHT22;9340;48.756;9.226;2022-07-29T13:52:48;20.20;99.90
18426;DHT22;9340;48.756;9.226;2022-07-29T13:55:16;20.40;99.90
18426;DHT22;9340;48.756;9.226;2022-07-29T13:57:43;20.60;99.90
18426;DHT22;9340;48.756;9.226;2022-07-29T14:00:10;20.70;99.90
18426;DHT22;9340;48.756;9.226;2022-07-29T14:02:37;20.60;99.90
18426;DHT22;9340;48.756;9.226;2022-07-29T14:05:04;20.50;99.90
18426;DHT22;9340;48.756;9.226;2022-07-29T14:07:31;20.90;99.90
18426;DHT22;9340;48.756;9.226;2022-07-29T14:09:59;21.30;99.90
18426;DHT22;9340;48.756;9.226;2022-07-29T14:12:26;21.60;99.90
18426;DHT22;9340;48.756;9.226;2022-07-29T14:14:53;21.90;99.90
18426;DHT22;9340;48.756;9.226;2022-07-29T14:17:19;22.10;99.90
18426;DHT22;9340;48.756;9.226;2022-07-29T14:19:47;22.30;99.90
18426;DHT22;9340;48.756;9.226;2022-07-29T14:22:13;22.60;99.90
18426;DHT22;9340;48.756;9.226;2022-07-29T14:24:40;22.40;99.90
18426;DHT22;9340;48.756;9.226;2022-07-29T14:27:08;22.50;99.90
18426;DHT22;9340;48.756;9.226;2022-07-29T14:29:35;22.70;99.90
18426;DHT22;9340;48.756;9.226;2022-07-29T14:32:02;22.90;99.90
18426;DHT22;9340;48.756;9.226;2022-07-29T14:34:29;23.00;99.90
18426;DHT22;9340;48.756;9.226;2022-07-29T14:36:55;23.10;99.90
18426;DHT22;9340;48.756;9.226;2022-07-29T14:39:22;23.20;99.90
18426;DHT22;9340;48.756;9.226;2022-07-29T14:41:49;23.10;99.90
18426;DHT22;9340;48.756;9.226;2022-07-29T14:44:17;22.90;99.90
18426;DHT22;9340;48.756;9.226;2022-07-29T14:46:44;22.90;99.90
18426;DHT22;9340;48.756;9.226;2022-07-29T14:49:11;22.90;99.90
18426;DHT22;9340;48.756;9.226;2022-07-29T14:51:37;23.20;99.90
18426;DHT22;9340;48.756;9.226;2022-07-29T14:54:04;23.30;99.90
18426;DHT22;9340;48.756;9.226;2022-07-29T14:56:31;23.40;99.90
18426;DHT22;9340;48.756;9.226;2022-07-29T14:58:57;23.40;99.90
18426;DHT22;9340;48.756;9.226;2022-07-29T15:01:25;23.60;99.90
18426;DHT22;9340;48.756;9.226;2022-07-29T15:03:52;23.70;99.90
18426;DHT22;9340;48.756;9.226;2022-07-29T15:06:19;23.70;99.90
18426;DHT22;9340;48.756;9.226;2022-07-29T15:08:46;23.80;99.90
18426;DHT22;9340;48.756;9.226;2022-07-29T15:11:12;23.90;99.90
18426;DHT22;9340;48.756;9.226;2022-07-29T15:13:39;23.80;99.90
18426;DHT22;9340;48.756;9.226;2022-07-29T15:16:07;23.80;99.90
18426;DHT22;9340;48.756;9.226;2022-07-29T15:18:35;23.70;99.90
18426;DHT22;9340;48.756;9.226;2022-07-29T15:21:03;23.50;99.90
18426;DHT22;9340;48.756;9.226;2022-07-29T15:23:32;23.40;99.90
18426;DHT22;9340;48.756;9.226;2022-07-29T15:25:59;23.60;99.90
18426;DHT22;9340;48.756;9.226;2022-07-29T15:28:25;23.40;99.90
18426;DHT22;9340;48.756;9.226;2022-07-29T15:30:52;23.20;99.90
18426;DHT22;9340;48.756;9.226;2022-07-29T15:33:19;22.70;99.90
18426;DHT22;9340;48.756;9.226;2022-07-29T15:35:48;22.60;99.90
18426;DHT22;9340;48.756;9.226;2022-07-29T15:38:16;22.40;99.90
18426;DHT22;9340;48.756;9.226;2022-07-29T15:40:42;22.40;99.90
18426;DHT22;9340;48.756;9.226;2022-07-29T15:43:11;22.40;99.90
18426;DHT22;9340;48.756;9.226;2022-07-29T15:45:38;22.40;99.90
18426;DHT22;9340;48.756;9.226;2022-07-29T15:48:07;22.40;99.90
18426;DHT22;9340;48.756;9.226;2022-07-29T15:50:34;22.40;99.90
18426;DHT22;9340;48.756;9.226;2022-07-29T15:53:02;22.50;99.90
18426;DHT22;9340;48.756;9.226;2022-07-29T15:55:28;22.60;99.90
18426;DHT22;9340;48.756;9.226;2022-07-29T15:57:55;22.60;99.90
18426;DHT22;9340;48.756;9.226;2022-07-29T16:00:22;22.80;99.90